Wetterverlauf

Letzte Wetterlage 23.10.2014 08:32
Wetterdiagramm
Tabellarische Darstellung
Datum Temperatur Windchill Feuchte Luftdruck Windrichtung Windstärke Niederschlag
23.10.2014 08:32 5,3 °C 5,3 °C 89 % 1020,4 hPa 0,00 mm
23.10.2014 08:11 5,2 °C 5,2 °C 89 % 1020,4 hPa 0,00 mm
23.10.2014 07:51 4,9 °C 4,9 °C 89 % 1020,4 hPa 0,00 mm
23.10.2014 07:30 4,7 °C 4,7 °C 89 % 1020,4 hPa 0,00 mm
23.10.2014 07:09 4,4 °C 4,4 °C 89 % 1019,4 hPa 0,00 mm
23.10.2014 06:48 4,3 °C 4,3 °C 88 % 1019,4 hPa 0,00 mm
23.10.2014 06:27 4,5 °C 4,5 °C 88 % 1019,4 hPa 0,00 mm
23.10.2014 06:06 4,8 °C 4,8 °C 86 % 1019,4 hPa 0,00 mm
23.10.2014 05:45 5,6 °C 5,6 °C 85 % 1019,4 hPa 0,00 mm
23.10.2014 05:04 6,2 °C 6,2 °C 82 % 1018,4 hPa 0,00 mm
23.10.2014 04:44 6,7 °C 6,7 °C 80 % 1019,4 hPa 0,00 mm
23.10.2014 04:23 7,1 °C 7,1 °C 80 % 1018,4 hPa 0,00 mm
23.10.2014 04:02 7,0 °C 7,0 °C 81 % 1018,4 hPa 0,00 mm
23.10.2014 03:42 7,1 °C 7,1 °C 80 % 1018,4 hPa 0,00 mm
23.10.2014 03:21 6,7 °C 6,7 °C 82 % 1018,4 hPa 0,00 mm
23.10.2014 03:00 6,5 °C 6,5 °C 82 % 1018,4 hPa 0,00 mm
23.10.2014 02:39 6,2 °C 6,2 °C 82 % 1018,4 hPa 0,00 mm
23.10.2014 02:18 6,0 °C 6,0 °C 81 % 1018,4 hPa 0,00 mm
23.10.2014 01:57 6,0 °C 6,0 °C 79 % 1018,4 hPa 0,00 mm
23.10.2014 01:37 6,3 °C 6,3 °C 77 % 1018,4 hPa 0,00 mm
23.10.2014 01:15 6,8 °C 6,8 °C 75 % 1017,4 hPa 0,00 mm
23.10.2014 00:54 7,2 °C 7,2 °C 75 % 1017,4 hPa 0,00 mm
23.10.2014 00:34 7,4 °C 7,4 °C 75 % 1017,4 hPa 0,00 mm
23.10.2014 00:14 7,3 °C 7,3 °C 76 % 1017,4 hPa 0,00 mm
Empfehlen Sie wetter.com
| Mehr
Neue Wetterwarnung

Neue Niederschlagsmeldung
Neue Meldung
Regen Liveticker
    sehr starker Regen/Gewitter
    starker Regen/Gewitter
    mäßiger bis starker Regen
    mäßiger Regen
    leichter bis mäßiger Regen
    kein Regen